sensor_id;sensor_type;location;lat;lon;timestamp;pressure;altitude;pressure_sealevel;temperature;humidity
55994;BME280;67425;52.126;20.638;2024-03-08T00:01:13;57996.09;;;-144.78;67.52
55994;BME280;67425;52.126;20.638;2024-03-08T00:03:38;58010.66;;;-144.78;65.53
55994;BME280;67425;52.126;20.638;2024-03-08T00:06:05;58025.19;;;-144.78;66.68
55994;BME280;67425;52.126;20.638;2024-03-08T00:08:31;58002.34;;;-144.78;66.66
55994;BME280;67425;52.126;20.638;2024-03-08T00:10:56;58002.34;;;-144.78;67.49
55994;BME280;67425;52.126;20.638;2024-03-08T00:13:21;58027.25;;;-144.78;68.71
55994;BME280;67425;52.126;20.638;2024-03-08T00:15:46;58027.25;;;-144.78;67.52
55994;BME280;67425;52.126;20.638;2024-03-08T00:18:12;58023.09;;;-144.78;66.78
55994;BME280;67425;52.126;20.638;2024-03-08T00:20:37;58031.41;;;-144.78;66.69
55994;BME280;67425;52.126;20.638;2024-03-08T00:23:03;58012.72;;;-144.78;67.57
55994;BME280;67425;52.126;20.638;2024-03-08T00:25:28;58037.66;;;-144.78;67.27
55994;BME280;67425;52.126;20.638;2024-03-08T00:27:53;57996.09;;;-144.78;66.57
55994;BME280;67425;52.126;20.638;2024-03-08T00:30:22;58014.81;;;-144.78;66.20
55994;BME280;67425;52.126;20.638;2024-03-08T00:32:48;58021.03;;;-144.78;65.75
55994;BME280;67425;52.126;20.638;2024-03-08T00:35:14;58033.50;;;-144.78;66.69
55994;BME280;67425;52.126;20.638;2024-03-08T00:37:39;57983.66;;;-144.78;66.95
55994;BME280;67425;52.126;20.638;2024-03-08T00:40:04;58012.72;;;-144.78;67.10
55994;BME280;67425;52.126;20.638;2024-03-08T00:42:31;57969.09;;;-144.78;64.19
55994;BME280;67425;52.126;20.638;2024-03-08T00:44:58;58029.34;;;-144.78;64.87
55994;BME280;67425;52.126;20.638;2024-03-08T00:47:23;58031.41;;;-144.78;66.19
55994;BME280;67425;52.126;20.638;2024-03-08T00:49:49;58023.09;;;-144.78;67.63
55994;BME280;67425;52.126;20.638;2024-03-08T00:52:14;58021.03;;;-144.78;66.89
55994;BME280;67425;52.126;20.638;2024-03-08T00:54:39;58010.66;;;-144.78;65.97
55994;BME280;67425;52.126;20.638;2024-03-08T00:57:04;58018.94;;;-144.78;66.47
55994;BME280;67425;52.126;20.638;2024-03-08T00:59:31;57987.78;;;-144.78;66.40
55994;BME280;67425;52.126;20.638;2024-03-08T01:01:57;58025.19;;;-144.78;66.55
55994;BME280;67425;52.126;20.638;2024-03-08T01:04:24;58008.56;;;-144.78;66.21
55994;BME280;67425;52.126;20.638;2024-03-08T01:06:50;58035.56;;;-144.78;66.87
55994;BME280;67425;52.126;20.638;2024-03-08T01:09:16;57989.88;;;-144.78;66.39
55994;BME280;67425;52.126;20.638;2024-03-08T01:11:42;58031.41;;;-144.78;65.38
55994;BME280;67425;52.126;20.638;2024-03-08T01:14:07;58008.56;;;-144.78;65.49
55994;BME280;67425;52.126;20.638;2024-03-08T01:16:33;58004.41;;;-144.78;64.69
55994;BME280;67425;52.126;20.638;2024-03-08T01:18:58;58052.19;;;-144.78;64.76
55994;BME280;67425;52.126;20.638;2024-03-08T01:21:23;58010.66;;;-144.78;65.13
55994;BME280;67425;52.126;20.638;2024-03-08T01:23:49;58039.72;;;-144.78;66.05
55994;BME280;67425;52.126;20.638;2024-03-08T01:26:14;58035.56;;;-144.78;66.19
55994;BME280;67425;52.126;20.638;2024-03-08T01:28:40;58070.88;;;-144.78;65.96
55994;BME280;67425;52.126;20.638;2024-03-08T01:31:05;58014.81;;;-144.78;66.11
55994;BME280;67425;52.126;20.638;2024-03-08T01:33:31;58004.41;;;-144.78;65.70
55994;BME280;67425;52.126;20.638;2024-03-08T01:35:56;58037.66;;;-144.78;64.92
55994;BME280;67425;52.126;20.638;2024-03-08T01:38:22;58033.50;;;-144.78;65.92
55994;BME280;67425;52.126;20.638;2024-03-08T01:40:47;58048.03;;;-144.78;65.40
55994;BME280;67425;52.126;20.638;2024-03-08T01:43:23;58041.81;;;-144.78;66.21
55994;BME280;67425;52.126;20.638;2024-03-08T01:45:50;58033.50;;;-144.78;66.79
55994;BME280;67425;52.126;20.638;2024-03-08T01:48:16;58060.50;;;-144.78;67.24
55994;BME280;67425;52.126;20.638;2024-03-08T01:50:42;58033.50;;;-144.78;66.92
55994;BME280;67425;52.126;20.638;2024-03-08T01:53:07;58033.50;;;-144.78;67.83
55994;BME280;67425;52.126;20.638;2024-03-08T01:55:35;58060.50;;;-144.78;67.07
55994;BME280;67425;52.126;20.638;2024-03-08T01:58:01;58066.72;;;-144.78;66.81
55994;BME280;67425;52.126;20.638;2024-03-08T02:00:27;58050.09;;;-144.78;66.85
55994;BME280;67425;52.126;20.638;2024-03-08T02:02:55;58052.19;;;-144.78;65.54
55994;BME280;67425;52.126;20.638;2024-03-08T02:05:20;58035.56;;;-144.78;66.03
55994;BME280;67425;52.126;20.638;2024-03-08T02:07:46;58041.81;;;-144.78;65.71
55994;BME280;67425;52.126;20.638;2024-03-08T02:10:11;58029.34;;;-144.78;67.01
55994;BME280;67425;52.126;20.638;2024-03-08T02:12:37;58054.25;;;-144.78;66.97
55994;BME280;67425;52.126;20.638;2024-03-08T02:15:03;58025.19;;;-144.78;66.78
55994;BME280;67425;52.126;20.638;2024-03-08T02:17:28;58037.66;;;-144.78;64.64
55994;BME280;67425;52.126;20.638;2024-03-08T02:19:55;58033.50;;;-144.78;66.55
55994;BME280;67425;52.126;20.638;2024-03-08T02:22:20;58058.41;;;-144.78;65.51
55994;BME280;67425;52.126;20.638;2024-03-08T02:24:45;58052.19;;;-144.78;64.13
55994;BME280;67425;52.126;20.638;2024-03-08T02:27:11;58045.94;;;-144.78;64.18
55994;BME280;67425;52.126;20.638;2024-03-08T02:29:36;58062.56;;;-144.78;65.73
55994;BME280;67425;52.126;20.638;2024-03-08T02:32:02;58041.81;;;-144.78;66.52
55994;BME280;67425;52.126;20.638;2024-03-08T02:34:28;58043.88;;;-144.78;65.51
55994;BME280;67425;52.126;20.638;2024-03-08T02:36:53;58037.66;;;-144.78;64.67
55994;BME280;67425;52.126;20.638;2024-03-08T02:39:18;58031.41;;;-144.78;65.85
55994;BME280;67425;52.126;20.638;2024-03-08T02:41:44;58048.03;;;-144.78;66.11
55994;BME280;67425;52.126;20.638;2024-03-08T02:44:10;58021.03;;;-144.78;65.37
55994;BME280;67425;52.126;20.638;2024-03-08T02:46:37;58033.50;;;-144.78;66.37
55994;BME280;67425;52.126;20.638;2024-03-08T02:49:02;58060.50;;;-144.78;67.12
55994;BME280;67425;52.126;20.638;2024-03-08T02:51:28;58027.25;;;-144.78;65.56
55994;BME280;67425;52.126;20.638;2024-03-08T02:53:53;58041.81;;;-144.78;64.41
55994;BME280;67425;52.126;20.638;2024-03-08T02:56:19;58054.25;;;-144.78;63.99
55994;BME280;67425;52.126;20.638;2024-03-08T02:58:44;58035.56;;;-144.78;64.72
55994;BME280;67425;52.126;20.638;2024-03-08T03:01:13;58041.81;;;-144.78;65.34
55994;BME280;67425;52.126;20.638;2024-03-08T03:03:39;58054.25;;;-144.78;65.04
55994;BME280;67425;52.126;20.638;2024-03-08T03:06:04;58029.34;;;-144.78;65.12
55994;BME280;67425;52.126;20.638;2024-03-08T03:08:32;58018.94;;;-144.78;64.72
55994;BME280;67425;52.126;20.638;2024-03-08T03:10:57;58033.50;;;-144.78;64.77
55994;BME280;67425;52.126;20.638;2024-03-08T03:13:22;58041.81;;;-144.78;65.17
55994;BME280;67425;52.126;20.638;2024-03-08T03:15:48;58054.25;;;-144.78;66.12
55994;BME280;67425;52.126;20.638;2024-03-08T03:18:13;58056.34;;;-144.78;66.01
55994;BME280;67425;52.126;20.638;2024-03-08T03:20:39;58041.81;;;-144.78;65.46
55994;BME280;67425;52.126;20.638;2024-03-08T03:23:07;58064.66;;;-144.78;64.61
55994;BME280;67425;52.126;20.638;2024-03-08T03:25:34;58037.66;;;-144.78;64.96
55994;BME280;67425;52.126;20.638;2024-03-08T03:28:00;58045.94;;;-144.78;65.30
55994;BME280;67425;52.126;20.638;2024-03-08T03:30:26;58054.25;;;-144.78;65.05
55994;BME280;67425;52.126;20.638;2024-03-08T03:32:58;58033.50;;;-144.78;65.12
55994;BME280;67425;52.126;20.638;2024-03-08T03:35:25;58058.41;;;-144.78;64.20
55994;BME280;67425;52.126;20.638;2024-03-08T03:37:51;58037.66;;;-144.78;64.97
55994;BME280;67425;52.126;20.638;2024-03-08T03:40:27;58052.19;;;-144.78;65.35
55994;BME280;67425;52.126;20.638;2024-03-08T03:42:52;58070.88;;;-144.78;64.59
55994;BME280;67425;52.126;20.638;2024-03-08T03:45:17;58033.50;;;-144.78;65.19
55994;BME280;67425;52.126;20.638;2024-03-08T03:47:45;58070.88;;;-144.78;65.27
55994;BME280;67425;52.126;20.638;2024-03-08T03:50:10;58050.09;;;-144.78;66.19
55994;BME280;67425;52.126;20.638;2024-03-08T03:52:35;58056.34;;;-144.78;66.78
55994;BME280;67425;52.126;20.638;2024-03-08T03:55:00;58045.94;;;-144.78;65.77
55994;BME280;67425;52.126;20.638;2024-03-08T03:57:26;58075.03;;;-144.78;64.98
55994;BME280;67425;52.126;20.638;2024-03-08T03:59:51;58062.56;;;-144.78;65.82
55994;BME280;67425;52.126;20.638;2024-03-08T04:02:17;58087.50;;;-144.78;65.40
55994;BME280;67425;52.126;20.638;2024-03-08T04:04:42;58060.50;;;-144.78;65.15
55994;BME280;67425;52.126;20.638;2024-03-08T04:07:07;58050.09;;;-144.78;65.00
55994;BME280;67425;52.126;20.638;2024-03-08T04:09:34;58052.19;;;-144.78;64.16
55994;BME280;67425;52.126;20.638;2024-03-08T04:12:00;58058.41;;;-144.78;64.66
55994;BME280;67425;52.126;20.638;2024-03-08T04:14:26;58062.56;;;-144.78;64.96
55994;BME280;67425;52.126;20.638;2024-03-08T04:16:51;58043.88;;;-144.78;65.21
55994;BME280;67425;52.126;20.638;2024-03-08T04:19:17;58050.09;;;-144.78;64.98
55994;BME280;67425;52.126;20.638;2024-03-08T04:21:44;58050.09;;;-144.78;64.89
55994;BME280;67425;52.126;20.638;2024-03-08T04:24:09;58066.72;;;-144.78;64.78
55994;BME280;67425;52.126;20.638;2024-03-08T04:26:34;58072.97;;;-144.78;64.57
55994;BME280;67425;52.126;20.638;2024-03-08T04:29:00;58072.97;;;-144.78;63.96
55994;BME280;67425;52.126;20.638;2024-03-08T04:31:25;58083.34;;;-144.78;65.58
55994;BME280;67425;52.126;20.638;2024-03-08T04:33:51;58054.25;;;-144.78;65.89
55994;BME280;67425;52.126;20.638;2024-03-08T04:36:17;58041.81;;;-144.78;63.33
55994;BME280;67425;52.126;20.638;2024-03-08T04:38:42;58050.09;;;-144.78;64.89
55994;BME280;67425;52.126;20.638;2024-03-08T04:41:07;58037.66;;;-144.78;66.12
55994;BME280;67425;52.126;20.638;2024-03-08T04:43:33;58062.56;;;-144.78;66.26
55994;BME280;67425;52.126;20.638;2024-03-08T04:45:59;58075.03;;;-144.78;65.38
55994;BME280;67425;52.126;20.638;2024-03-08T04:48:24;58058.41;;;-144.78;66.82
55994;BME280;67425;52.126;20.638;2024-03-08T04:50:51;58070.88;;;-144.78;66.01
55994;BME280;67425;52.126;20.638;2024-03-08T04:53:18;58058.41;;;-144.78;65.97
55994;BME280;67425;52.126;20.638;2024-03-08T04:55:43;58062.56;;;-144.78;65.89
55994;BME280;67425;52.126;20.638;2024-03-08T04:58:09;58048.03;;;-144.78;65.28
55994;BME280;67425;52.126;20.638;2024-03-08T05:00:34;58052.19;;;-144.78;64.56
55994;BME280;67425;52.126;20.638;2024-03-08T05:03:00;58081.25;;;-144.78;65.77
55994;BME280;67425;52.126;20.638;2024-03-08T05:05:25;58077.09;;;-144.78;66.27
55994;BME280;67425;52.126;20.638;2024-03-08T05:07:53;58054.25;;;-144.78;65.21
55994;BME280;67425;52.126;20.638;2024-03-08T05:10:18;58070.88;;;-144.78;64.44
55994;BME280;67425;52.126;20.638;2024-03-08T05:12:44;58058.41;;;-144.78;64.00
55994;BME280;67425;52.126;20.638;2024-03-08T05:15:09;58072.97;;;-144.78;65.11
55994;BME280;67425;52.126;20.638;2024-03-08T05:17:34;58083.34;;;-144.78;66.07
55994;BME280;67425;52.126;20.638;2024-03-08T05:19:59;58058.41;;;-144.78;65.38
55994;BME280;67425;52.126;20.638;2024-03-08T05:22:25;58068.81;;;-144.78;65.97
55994;BME280;67425;52.126;20.638;2024-03-08T05:24:51;58070.88;;;-144.78;65.98
55994;BME280;67425;52.126;20.638;2024-03-08T05:27:16;58075.03;;;-144.78;66.85
55994;BME280;67425;52.126;20.638;2024-03-08T05:29:41;58033.50;;;-144.78;67.37
55994;BME280;67425;52.126;20.638;2024-03-08T05:32:06;58070.88;;;-144.78;66.32
55994;BME280;67425;52.126;20.638;2024-03-08T05:34:32;58066.72;;;-144.78;67.30
55994;BME280;67425;52.126;20.638;2024-03-08T05:36:57;58075.03;;;-144.78;67.25
55994;BME280;67425;52.126;20.638;2024-03-08T05:39:23;58083.34;;;-144.78;67.25
55994;BME280;67425;52.126;20.638;2024-03-08T05:41:49;58070.88;;;-144.78;66.03
55994;BME280;67425;52.126;20.638;2024-03-08T05:44:15;58097.88;;;-144.78;65.51
55994;BME280;67425;52.126;20.638;2024-03-08T05:46:43;58062.56;;;-144.78;67.20
55994;BME280;67425;52.126;20.638;2024-03-08T05:49:08;58058.41;;;-144.78;68.78
55994;BME280;67425;52.126;20.638;2024-03-08T05:51:35;58052.19;;;-144.78;67.26
55994;BME280;67425;52.126;20.638;2024-03-08T05:54:01;58039.72;;;-144.78;66.99
55994;BME280;67425;52.126;20.638;2024-03-08T05:56:28;58041.81;;;-144.78;66.69
55994;BME280;67425;52.126;20.638;2024-03-08T05:58:54;58050.09;;;-144.78;66.60
55994;BME280;67425;52.126;20.638;2024-03-08T06:01:19;58058.41;;;-144.78;68.02
55994;BME280;67425;52.126;20.638;2024-03-08T06:03:44;58054.25;;;-144.78;68.26
55994;BME280;67425;52.126;20.638;2024-03-08T06:06:13;58050.09;;;-144.78;66.94
55994;BME280;67425;52.126;20.638;2024-03-08T06:08:39;58037.66;;;-144.78;67.07
55994;BME280;67425;52.126;20.638;2024-03-08T06:11:04;58037.66;;;-144.78;67.22
55994;BME280;67425;52.126;20.638;2024-03-08T06:13:31;58033.50;;;-144.78;67.30
55994;BME280;67425;52.126;20.638;2024-03-08T06:15:56;58045.94;;;-144.78;67.18
55994;BME280;67425;52.126;20.638;2024-03-08T06:18:21;58023.09;;;-144.78;66.48
55994;BME280;67425;52.126;20.638;2024-03-08T06:20:47;58029.34;;;-144.78;66.24
55994;BME280;67425;52.126;20.638;2024-03-08T06:23:12;58041.81;;;-144.78;66.90
55994;BME280;67425;52.126;20.638;2024-03-08T06:25:37;58031.41;;;-144.78;67.86
55994;BME280;67425;52.126;20.638;2024-03-08T06:28:03;58054.25;;;-144.78;67.92
55994;BME280;67425;52.126;20.638;2024-03-08T06:30:28;58033.50;;;-144.78;67.07
55994;BME280;67425;52.126;20.638;2024-03-08T06:32:53;57996.09;;;-144.78;66.47
55994;BME280;67425;52.126;20.638;2024-03-08T06:35:18;58006.50;;;-144.78;66.35
55994;BME280;67425;52.126;20.638;2024-03-08T06:37:45;58010.66;;;-144.78;67.74
55994;BME280;67425;52.126;20.638;2024-03-08T06:40:10;57973.25;;;-144.78;66.91
55994;BME280;67425;52.126;20.638;2024-03-08T06:42:39;58002.34;;;-144.78;66.36
55994;BME280;67425;52.126;20.638;2024-03-08T06:45:04;57991.94;;;-144.78;65.69
55994;BME280;67425;52.126;20.638;2024-03-08T06:47:30;57987.78;;;-144.78;66.79
55994;BME280;67425;52.126;20.638;2024-03-08T06:49:56;57998.19;;;-144.78;67.06
55994;BME280;67425;52.126;20.638;2024-03-08T06:52:21;57973.25;;;-144.78;66.71
55994;BME280;67425;52.126;20.638;2024-03-08T06:54:47;57996.09;;;-144.78;70.44
55994;BME280;67425;52.126;20.638;2024-03-08T06:57:12;57954.56;;;-144.78;68.25
55994;BME280;67425;52.126;20.638;2024-03-08T06:59:38;57956.63;;;-144.78;69.45
55994;BME280;67425;52.126;20.638;2024-03-08T07:02:04;57956.63;;;-144.78;67.31
55994;BME280;67425;52.126;20.638;2024-03-08T07:04:29;57967.03;;;-144.78;68.63
55994;BME280;67425;52.126;20.638;2024-03-08T07:06:58;57927.56;;;-144.78;67.67
55994;BME280;67425;52.126;20.638;2024-03-08T07:09:23;57933.78;;;-144.78;66.49
55994;BME280;67425;52.126;20.638;2024-03-08T07:11:49;57950.41;;;-144.78;65.91
55994;BME280;67425;52.126;20.638;2024-03-08T07:14:20;57927.56;;;-144.78;65.52
55994;BME280;67425;52.126;20.638;2024-03-08T07:16:46;57952.50;;;-144.78;66.31
55994;BME280;67425;52.126;20.638;2024-03-08T07:19:12;57962.88;;;-144.78;65.88
55994;BME280;67425;52.126;20.638;2024-03-08T07:21:37;57950.41;;;-144.78;66.36
55994;BME280;67425;52.126;20.638;2024-03-08T07:24:02;57921.34;;;-144.78;65.46
55994;BME280;67425;52.126;20.638;2024-03-08T07:26:34;57942.09;;;-144.78;65.15
55994;BME280;67425;52.126;20.638;2024-03-08T07:29:00;57931.72;;;-144.78;64.15
55994;BME280;67425;52.126;20.638;2024-03-08T07:31:25;57944.19;;;-144.78;63.38
55994;BME280;67425;52.126;20.638;2024-03-08T07:33:50;57921.34;;;-144.78;63.48
55994;BME280;67425;52.126;20.638;2024-03-08T07:36:16;57910.94;;;-144.78;63.43
55994;BME280;67425;52.126;20.638;2024-03-08T07:38:41;57908.88;;;-144.78;63.75
55994;BME280;67425;52.126;20.638;2024-03-08T07:41:06;57910.94;;;-144.78;64.38
55994;BME280;67425;52.126;20.638;2024-03-08T07:43:32;57927.56;;;-144.78;63.25
55994;BME280;67425;52.126;20.638;2024-03-08T07:45:57;57910.94;;;-144.78;62.31
55994;BME280;67425;52.126;20.638;2024-03-08T07:48:23;57933.78;;;-144.78;63.44
55994;BME280;67425;52.126;20.638;2024-03-08T07:50:48;57900.56;;;-144.78;62.57
55994;BME280;67425;52.126;20.638;2024-03-08T07:53:15;57902.63;;;-144.78;61.09
55994;BME280;67425;52.126;20.638;2024-03-08T07:55:40;57933.78;;;-144.78;60.74
55994;BME280;67425;52.126;20.638;2024-03-08T07:58:07;57927.56;;;-144.78;60.39
55994;BME280;67425;52.126;20.638;2024-03-08T08:00:34;57900.56;;;-144.78;60.02
55994;BME280;67425;52.126;20.638;2024-03-08T08:03:01;57890.19;;;-144.78;59.00
55994;BME280;67425;52.126;20.638;2024-03-08T08:05:26;57894.34;;;-144.78;58.29
55994;BME280;67425;52.126;20.638;2024-03-08T08:07:52;57879.78;;;-144.78;57.65
55994;BME280;67425;52.126;20.638;2024-03-08T08:10:18;57881.88;;;-144.78;57.94
55994;BME280;67425;52.126;20.638;2024-03-08T08:12:49;57848.63;;;-144.78;57.98
55994;BME280;67425;52.126;20.638;2024-03-08T08:15:15;57877.72;;;-144.78;57.41
55994;BME280;67425;52.126;20.638;2024-03-08T08:17:46;57881.88;;;-144.78;56.93
55994;BME280;67425;52.126;20.638;2024-03-08T08:20:12;57892.25;;;-144.78;57.19
55994;BME280;67425;52.126;20.638;2024-03-08T08:22:38;57886.03;;;-144.78;56.84
55994;BME280;67425;52.126;20.638;2024-03-08T08:25:04;57879.78;;;-144.78;57.78
55994;BME280;67425;52.126;20.638;2024-03-08T08:27:29;57869.41;;;-144.78;57.36
55994;BME280;67425;52.126;20.638;2024-03-08T08:29:55;57867.34;;;-144.78;56.71
55994;BME280;67425;52.126;20.638;2024-03-08T08:32:21;57848.63;;;-144.78;56.28
55994;BME280;67425;52.126;20.638;2024-03-08T08:34:46;57838.25;;;-144.78;55.93
55994;BME280;67425;52.126;20.638;2024-03-08T08:37:11;57834.09;;;-144.78;55.95
55994;BME280;67425;52.126;20.638;2024-03-08T08:39:37;57854.88;;;-144.78;55.25
55994;BME280;67425;52.126;20.638;2024-03-08T08:42:03;57854.88;;;-144.78;54.95
55994;BME280;67425;52.126;20.638;2024-03-08T08:44:28;57842.41;;;-144.78;53.92
55994;BME280;67425;52.126;20.638;2024-03-08T08:46:53;57859.03;;;-144.78;53.88
55994;BME280;67425;52.126;20.638;2024-03-08T08:49:19;57834.09;;;-144.78;52.66
55994;BME280;67425;52.126;20.638;2024-03-08T08:51:49;57854.88;;;-144.78;53.73
55994;BME280;67425;52.126;20.638;2024-03-08T08:54:14;57827.88;;;-144.78;52.95
55994;BME280;67425;52.126;20.638;2024-03-08T08:56:42;57819.56;;;-144.78;51.84
55994;BME280;67425;52.126;20.638;2024-03-08T08:59:08;57848.63;;;-144.78;51.48
55994;BME280;67425;52.126;20.638;2024-03-08T09:01:34;57817.47;;;-144.78;51.18
55994;BME280;67425;52.126;20.638;2024-03-08T09:03:59;57827.88;;;-144.78;49.45
55994;BME280;67425;52.126;20.638;2024-03-08T09:06:24;57819.56;;;-144.78;50.37
55994;BME280;67425;52.126;20.638;2024-03-08T09:08:50;57809.19;;;-144.78;50.46
55994;BME280;67425;52.126;20.638;2024-03-08T09:11:16;57809.19;;;-144.78;50.22
55994;BME280;67425;52.126;20.638;2024-03-08T09:13:43;57825.78;;;-144.78;50.41
55994;BME280;67425;52.126;20.638;2024-03-08T09:16:09;57813.34;;;-144.78;50.23
55994;BME280;67425;52.126;20.638;2024-03-08T09:18:35;57827.88;;;-144.78;50.46
55994;BME280;67425;52.126;20.638;2024-03-08T09:21:00;57807.09;;;-144.78;50.47
55994;BME280;67425;52.126;20.638;2024-03-08T09:23:26;57821.63;;;-144.78;48.43
55994;BME280;67425;52.126;20.638;2024-03-08T09:25:55;57788.41;;;-144.78;48.64
55994;BME280;67425;52.126;20.638;2024-03-08T09:28:20;57800.88;;;-144.78;48.38
55994;BME280;67425;52.126;20.638;2024-03-08T09:30:46;57790.47;;;-144.78;48.18
55994;BME280;67425;52.126;20.638;2024-03-08T09:33:11;57769.72;;;-144.78;47.43
55994;BME280;67425;52.126;20.638;2024-03-08T09:35:36;57809.19;;;-144.78;47.26
55994;BME280;67425;52.126;20.638;2024-03-08T09:38:02;57794.63;;;-144.78;47.12
55994;BME280;67425;52.126;20.638;2024-03-08T09:40:28;57784.25;;;-144.78;47.19
55994;BME280;67425;52.126;20.638;2024-03-08T09:42:53;57786.34;;;-144.78;47.58
55994;BME280;67425;52.126;20.638;2024-03-08T09:45:20;57780.09;;;-144.78;47.60
55994;BME280;67425;52.126;20.638;2024-03-08T09:47:50;57807.09;;;-144.78;46.82
55994;BME280;67425;52.126;20.638;2024-03-08T09:50:16;57771.78;;;-144.78;45.14
55994;BME280;67425;52.126;20.638;2024-03-08T09:52:42;57786.34;;;-144.78;45.61
55994;BME280;67425;52.126;20.638;2024-03-08T09:55:11;57798.78;;;-144.78;45.36
55994;BME280;67425;52.126;20.638;2024-03-08T09:57:41;57800.88;;;-144.78;45.25
55994;BME280;67425;52.126;20.638;2024-03-08T10:00:19;57821.63;;;-144.78;45.84
55994;BME280;67425;52.126;20.638;2024-03-08T10:02:49;57784.25;;;-144.78;45.26
55994;BME280;67425;52.126;20.638;2024-03-08T10:05:15;57805.03;;;-144.78;44.19
55994;BME280;67425;52.126;20.638;2024-03-08T10:07:40;57794.63;;;-144.78;44.10
55994;BME280;67425;52.126;20.638;2024-03-08T10:10:05;57805.03;;;-144.78;44.22
55994;BME280;67425;52.126;20.638;2024-03-08T10:12:33;57751.03;;;-144.78;45.62
55994;BME280;67425;52.126;20.638;2024-03-08T10:14:58;57773.88;;;-144.78;44.54
55994;BME280;67425;52.126;20.638;2024-03-08T10:17:24;57771.78;;;-144.78;44.24
55994;BME280;67425;52.126;20.638;2024-03-08T10:19:49;57757.25;;;-144.78;44.66
55994;BME280;67425;52.126;20.638;2024-03-08T10:22:15;57786.34;;;-144.78;44.17
55994;BME280;67425;52.126;20.638;2024-03-08T10:24:40;57796.72;;;-144.78;44.30
55994;BME280;67425;52.126;20.638;2024-03-08T10:27:06;57761.41;;;-144.78;44.22
55994;BME280;67425;52.126;20.638;2024-03-08T10:29:32;57821.63;;;-144.78;44.60
55994;BME280;67425;52.126;20.638;2024-03-08T10:31:57;57761.41;;;-144.78;44.08
55994;BME280;67425;52.126;20.638;2024-03-08T10:34:23;57775.94;;;-144.78;43.56
55994;BME280;67425;52.126;20.638;2024-03-08T10:36:49;57788.41;;;-144.78;44.61
55994;BME280;67425;52.126;20.638;2024-03-08T10:41:44;57796.72;;;-144.78;43.67
55994;BME280;67425;52.126;20.638;2024-03-08T10:44:26;57811.25;;;-144.78;43.84
55994;BME280;67425;52.126;20.638;2024-03-08T10:49:25;57790.47;;;-144.78;43.62
55994;BME280;67425;52.126;20.638;2024-03-08T10:51:50;57802.94;;;-144.78;44.18
55994;BME280;67425;52.126;20.638;2024-03-08T10:54:17;57800.88;;;-144.78;43.15
55994;BME280;67425;52.126;20.638;2024-03-08T10:56:43;57784.25;;;-144.78;43.79
55994;BME280;67425;52.126;20.638;2024-03-08T10:59:09;57773.88;;;-144.78;43.18
55994;BME280;67425;52.126;20.638;2024-03-08T11:01:35;57784.25;;;-144.78;42.79
55994;BME280;67425;52.126;20.638;2024-03-08T11:04:03;57767.63;;;-144.78;44.63
55994;BME280;67425;52.126;20.638;2024-03-08T11:06:51;57761.41;;;-144.78;43.52
55994;BME280;67425;52.126;20.638;2024-03-08T11:09:27;57755.19;;;-144.78;43.72
55994;BME280;67425;52.126;20.638;2024-03-08T11:11:53;57782.19;;;-144.78;42.47
55994;BME280;67425;52.126;20.638;2024-03-08T11:14:43;57778.03;;;-144.78;42.95
55994;BME280;67425;52.126;20.638;2024-03-08T11:17:09;57763.47;;;-144.78;42.25
55994;BME280;67425;52.126;20.638;2024-03-08T11:19:34;57763.47;;;-144.78;42.33
55994;BME280;67425;52.126;20.638;2024-03-08T11:22:00;57788.41;;;-144.78;42.09
55994;BME280;67425;52.126;20.638;2024-03-08T11:24:26;57753.09;;;-144.78;42.40
55994;BME280;67425;52.126;20.638;2024-03-08T11:26:54;57773.88;;;-144.78;43.68
55994;BME280;67425;52.126;20.638;2024-03-08T11:31:52;57728.19;;;-144.78;41.51
55994;BME280;67425;52.126;20.638;2024-03-08T11:34:17;57713.63;;;-144.78;41.12
55994;BME280;67425;52.126;20.638;2024-03-08T11:36:44;57792.56;;;-144.78;41.55
55994;BME280;67425;52.126;20.638;2024-03-08T11:39:12;57755.19;;;-144.78;41.38
55994;BME280;67425;52.126;20.638;2024-03-08T11:41:39;57746.88;;;-144.78;41.56
55994;BME280;67425;52.126;20.638;2024-03-08T11:44:06;57746.88;;;-144.78;41.84
55994;BME280;67425;52.126;20.638;2024-03-08T11:46:33;57775.94;;;-144.78;41.58
55994;BME280;67425;52.126;20.638;2024-03-08T11:48:59;57721.94;;;-144.78;41.98
55994;BME280;67425;52.126;20.638;2024-03-08T11:51:25;57755.19;;;-144.78;40.99
55994;BME280;67425;52.126;20.638;2024-03-08T11:53:50;57757.25;;;-144.78;41.66
55994;BME280;67425;52.126;20.638;2024-03-08T11:56:16;57728.19;;;-144.78;40.56
55994;BME280;67425;52.126;20.638;2024-03-08T11:58:41;57755.19;;;-144.78;40.65
55994;BME280;67425;52.126;20.638;2024-03-08T12:01:07;57744.78;;;-144.78;40.79
55994;BME280;67425;52.126;20.638;2024-03-08T12:03:37;57765.56;;;-144.78;40.23
55994;BME280;67425;52.126;20.638;2024-03-08T12:06:03;57742.72;;;-144.78;40.24
55994;BME280;67425;52.126;20.638;2024-03-08T12:08:31;57753.09;;;-144.78;41.13
55994;BME280;67425;52.126;20.638;2024-03-08T12:10:57;57742.72;;;-144.78;40.73
55994;BME280;67425;52.126;20.638;2024-03-08T12:13:31;57751.03;;;-144.78;40.38
55994;BME280;67425;52.126;20.638;2024-03-08T12:15:57;57773.88;;;-144.78;40.50
55994;BME280;67425;52.126;20.638;2024-03-08T12:18:24;57730.25;;;-144.78;40.71
55994;BME280;67425;52.126;20.638;2024-03-08T12:20:49;57726.09;;;-144.78;40.34
55994;BME280;67425;52.126;20.638;2024-03-08T12:23:15;57732.34;;;-144.78;39.96
55994;BME280;67425;52.126;20.638;2024-03-08T12:25:41;57736.50;;;-144.78;40.04
55994;BME280;67425;52.126;20.638;2024-03-08T12:28:07;57746.88;;;-144.78;39.67
55994;BME280;67425;52.126;20.638;2024-03-08T12:30:35;57724.03;;;-144.78;40.29
55994;BME280;67425;52.126;20.638;2024-03-08T12:33:02;57761.41;;;-144.78;40.08